createdAt,value
2018-07-14T00:02:01.297Z,92.70
2018-07-14T00:04:29.688Z,92.70
2018-07-14T00:06:57.915Z,92.80
2018-07-14T00:09:26.144Z,93.10
2018-07-14T00:11:54.326Z,92.90
2018-07-14T00:14:22.635Z,92.80
2018-07-14T00:16:50.893Z,92.80
2018-07-14T00:19:19.092Z,92.90
2018-07-14T00:21:47.298Z,92.90
2018-07-14T00:24:15.894Z,92.90
2018-07-14T00:26:44.141Z,92.90
2018-07-14T00:29:12.367Z,92.90
2018-07-14T00:31:40.532Z,92.80
2018-07-14T00:34:08.790Z,92.90
2018-07-14T00:36:37.060Z,93.00
2018-07-14T00:39:05.480Z,93.10
2018-07-14T00:41:33.667Z,93.30
2018-07-14T00:45:04.933Z,93.30
2018-07-14T00:47:33.130Z,93.30
2018-07-14T00:50:01.361Z,93.30
2018-07-14T00:52:29.526Z,93.40
2018-07-14T00:54:57.860Z,93.40
2018-07-14T00:57:26.034Z,93.40
2018-07-14T00:59:54.255Z,93.30
2018-07-14T01:02:22.581Z,93.30
2018-07-14T01:04:51.004Z,93.40
2018-07-14T01:07:19.167Z,93.50
2018-07-14T01:09:47.356Z,93.50
2018-07-14T01:12:15.592Z,93.50
2018-07-14T01:14:43.793Z,93.50
2018-07-14T01:17:11.972Z,93.50
2018-07-14T01:19:40.183Z,93.60
2018-07-14T01:22:08.464Z,93.80
2018-07-14T01:24:36.755Z,93.80
2018-07-14T01:27:04.949Z,93.90
2018-07-14T01:29:33.137Z,94.00
2018-07-14T01:32:01.327Z,94.20
2018-07-14T01:36:57.548Z,94.50
2018-07-14T01:39:25.764Z,94.60
2018-07-14T01:44:22.216Z,94.50
2018-07-14T01:46:50.393Z,94.50
2018-07-14T01:49:18.685Z,94.50
2018-07-14T01:51:46.927Z,94.50
2018-07-14T01:54:15.335Z,94.40
2018-07-14T01:56:43.544Z,94.30
2018-07-14T01:59:11.749Z,94.40
2018-07-14T02:04:08.076Z,94.60
2018-07-14T02:06:36.293Z,94.70
2018-07-14T02:09:05.030Z,94.60
2018-07-14T02:11:33.325Z,94.60
2018-07-14T02:14:01.661Z,94.60
2018-07-14T02:16:29.881Z,94.50
2018-07-14T02:21:26.049Z,94.40
2018-07-14T02:23:54.209Z,94.40
2018-07-14T02:26:22.579Z,94.50
2018-07-14T02:28:50.762Z,94.60
2018-07-14T02:31:18.992Z,94.50
2018-07-14T02:33:47.248Z,94.40
2018-07-14T02:36:15.598Z,94.40
2018-07-14T02:38:43.803Z,94.50
2018-07-14T02:41:12.006Z,94.50
2018-07-14T02:43:46.671Z,94.50
2018-07-14T02:46:14.961Z,94.20
2018-07-14T02:48:43.257Z,94.80
2018-07-14T02:51:11.515Z,94.40
2018-07-14T02:53:39.758Z,94.40
2018-07-14T02:58:36.109Z,94.60
2018-07-14T03:01:04.432Z,94.80
2018-07-14T03:03:32.680Z,94.90
2018-07-14T03:06:01.048Z,95.00
2018-07-14T03:08:29.305Z,94.90
2018-07-14T03:10:57.506Z,94.90
2018-07-14T03:13:25.771Z,94.80
2018-07-14T03:15:54.086Z,94.70
2018-07-14T03:18:22.265Z,94.90
2018-07-14T03:20:51.687Z,94.60
2018-07-14T03:23:19.932Z,94.60
2018-07-14T03:25:48.178Z,94.90
2018-07-14T03:28:16.419Z,94.50
2018-07-14T03:30:44.795Z,94.40
2018-07-14T03:33:13.029Z,94.40
2018-07-14T03:35:41.289Z,94.50
2018-07-14T03:41:10.184Z,94.50
2018-07-14T03:43:38.463Z,94.60
2018-07-14T03:46:06.703Z,94.40
2018-07-14T03:48:34.962Z,94.70
2018-07-14T03:51:03.157Z,95.00
2018-07-14T03:53:31.357Z,95.10
2018-07-14T03:58:27.552Z,95.10
2018-07-14T04:00:55.735Z,95.10
2018-07-14T04:03:24.639Z,95.10
2018-07-14T04:05:52.999Z,95.00
2018-07-14T04:08:21.186Z,94.80
2018-07-14T04:10:49.422Z,94.70
2018-07-14T04:13:17.646Z,95.00
2018-07-14T04:15:46.125Z,94.60
2018-07-14T04:18:14.390Z,94.60
2018-07-14T04:20:42.630Z,94.60
2018-07-14T04:23:10.839Z,94.50
2018-07-14T04:25:39.230Z,94.50
2018-07-14T04:28:07.451Z,94.40
2018-07-14T04:30:35.640Z,94.30
2018-07-14T04:33:03.889Z,94.20
2018-07-14T04:35:32.308Z,94.10
2018-07-14T04:38:00.489Z,93.90
2018-07-14T04:40:28.764Z,93.80
2018-07-14T04:42:56.970Z,93.30
2018-07-14T04:45:25.235Z,93.50
2018-07-14T04:47:53.431Z,93.40
2018-07-14T04:50:21.650Z,93.50
2018-07-14T04:52:49.912Z,93.30
2018-07-14T04:55:18.308Z,93.20
2018-07-14T04:57:46.522Z,93.10
2018-07-14T05:00:14.743Z,93.00
2018-07-14T05:02:42.990Z,92.90
2018-07-14T05:05:11.373Z,93.00
2018-07-14T05:07:39.586Z,93.10
2018-07-14T05:10:07.880Z,93.20
2018-07-14T05:15:04.270Z,93.50
2018-07-14T05:17:32.433Z,93.60
2018-07-14T05:20:00.680Z,93.60
2018-07-14T05:22:28.899Z,93.60
2018-07-14T05:24:58.245Z,94.10
2018-07-14T05:27:26.459Z,93.60
2018-07-14T05:29:54.742Z,93.60
2018-07-14T05:32:23.119Z,93.40
2018-07-14T05:34:52.416Z,93.50
2018-07-14T05:37:20.612Z,93.30
2018-07-14T05:39:48.908Z,93.40
2018-07-14T05:42:17.297Z,93.30
2018-07-14T05:44:45.723Z,93.10
2018-07-14T05:47:13.974Z,92.90
2018-07-14T05:49:42.165Z,93.00
2018-07-14T05:52:10.540Z,92.80
2018-07-14T05:54:38.727Z,92.60
2018-07-14T05:57:06.946Z,92.50
2018-07-14T05:59:35.149Z,92.10
2018-07-14T06:02:03.370Z,91.90
2018-07-14T06:04:31.664Z,91.70
2018-07-14T06:06:59.982Z,90.70
2018-07-14T06:09:28.248Z,90.60
2018-07-14T06:11:56.442Z,90.50
2018-07-14T06:14:24.736Z,89.20
2018-07-14T06:16:53.048Z,89.00
2018-07-14T06:19:21.443Z,89.80
2018-07-14T06:21:49.659Z,90.00
2018-07-14T06:24:18.033Z,90.00
2018-07-14T06:26:47.261Z,90.50
2018-07-14T06:29:15.464Z,90.80
2018-07-14T06:31:43.654Z,90.50
2018-07-14T06:34:13.101Z,90.10
2018-07-14T06:36:41.332Z,89.60
2018-07-14T06:39:09.711Z,89.80
2018-07-14T06:41:37.985Z,87.30
2018-07-14T06:44:06.303Z,87.10
2018-07-14T06:46:34.541Z,85.90
2018-07-14T06:49:02.855Z,85.40
2018-07-14T06:51:31.100Z,86.30
2018-07-14T06:53:59.281Z,86.50
2018-07-14T06:56:27.517Z,87.20
2018-07-14T06:58:55.779Z,86.60
2018-07-14T07:01:24.708Z,85.10
2018-07-14T07:03:52.961Z,85.20
2018-07-14T07:06:21.280Z,83.70
2018-07-14T07:08:49.593Z,83.50
2018-07-14T07:11:17.881Z,82.20
2018-07-14T07:13:52.591Z,81.80
2018-07-14T07:16:20.771Z,81.80
2018-07-14T07:21:17.055Z,82.50
2018-07-14T07:23:45.206Z,82.10
2018-07-14T07:26:13.515Z,81.70
2018-07-14T07:28:41.776Z,81.10
2018-07-14T07:31:09.980Z,81.40
2018-07-14T07:33:38.174Z,80.30
2018-07-14T07:36:06.432Z,79.50
2018-07-14T07:38:34.706Z,80.30
2018-07-14T07:41:02.962Z,79.60
2018-07-14T07:43:31.132Z,81.20
2018-07-14T07:46:00.666Z,78.60
2018-07-14T07:48:28.896Z,80.20
2018-07-14T07:50:57.139Z,79.70
2018-07-14T07:53:25.323Z,78.10
2018-07-14T07:55:53.632Z,78.80
2018-07-14T07:58:21.904Z,78.80
2018-07-14T08:00:50.128Z,79.00
2018-07-14T08:03:18.307Z,78.80
2018-07-14T08:05:46.562Z,77.10
2018-07-14T08:08:14.767Z,77.40
2018-07-14T08:13:10.963Z,77.20
2018-07-14T08:15:39.245Z,77.20
2018-07-14T08:18:07.512Z,77.60
2018-07-14T08:20:35.816Z,76.00
2018-07-14T08:23:04.118Z,76.10
2018-07-14T08:25:32.331Z,75.00
2018-07-14T08:28:00.587Z,75.30
2018-07-14T08:30:28.888Z,76.40
2018-07-14T08:32:57.164Z,76.30
2018-07-14T08:35:25.445Z,75.90
2018-07-14T08:37:53.652Z,77.00
2018-07-14T08:40:21.829Z,77.30
2018-07-14T08:42:50.112Z,74.90
2018-07-14T08:45:18.247Z,76.20
2018-07-14T08:47:46.425Z,76.10
2018-07-14T08:50:14.639Z,75.90
2018-07-14T08:52:42.846Z,76.00
2018-07-14T08:55:11.287Z,76.20
2018-07-14T08:57:39.498Z,77.10
2018-07-14T09:00:11.687Z,77.10
2018-07-14T09:02:39.909Z,77.80
2018-07-14T09:05:08.339Z,75.80
2018-07-14T09:10:05.015Z,74.70
2018-07-14T09:12:33.254Z,74.50
2018-07-14T09:15:01.593Z,75.60
2018-07-14T09:17:29.873Z,77.00
2018-07-14T09:19:58.084Z,78.30
2018-07-14T09:22:26.319Z,77.80
2018-07-14T09:24:54.630Z,78.80
2018-07-14T09:27:22.823Z,77.00
2018-07-14T09:29:51.071Z,78.20
2018-07-14T09:32:19.353Z,78.10
2018-07-14T09:34:47.789Z,77.30
2018-07-14T09:37:16.027Z,77.70
2018-07-14T09:39:44.272Z,76.40
2018-07-14T09:42:12.587Z,76.40
2018-07-14T09:44:41.070Z,76.50
2018-07-14T09:47:09.407Z,76.80
2018-07-14T09:49:37.688Z,77.50
2018-07-14T09:52:06.081Z,76.40
2018-07-14T09:54:35.478Z,76.90
2018-07-14T09:57:03.754Z,76.80
2018-07-14T09:59:32.065Z,74.40
2018-07-14T10:02:00.333Z,73.30
2018-07-14T10:04:28.665Z,73.90
2018-07-14T10:06:56.963Z,74.60
2018-07-14T10:09:25.190Z,73.90
2018-07-14T10:11:53.518Z,74.60
2018-07-14T10:14:21.824Z,75.90
2018-07-14T10:16:50.122Z,75.60
2018-07-14T10:19:18.384Z,74.10
2018-07-14T10:21:46.776Z,75.10
2018-07-14T10:24:15.259Z,72.50
2018-07-14T10:26:43.468Z,74.00
2018-07-14T10:29:11.653Z,73.80
2018-07-14T10:31:39.848Z,73.10
2018-07-14T10:34:08.197Z,74.30
2018-07-14T10:36:36.532Z,73.50
2018-07-14T10:39:06.296Z,73.50
2018-07-14T10:41:34.538Z,73.30
2018-07-14T10:44:03.055Z,72.90
2018-07-14T10:46:31.244Z,74.60
2018-07-14T10:48:59.473Z,75.00
2018-07-14T10:51:27.753Z,73.60
2018-07-14T10:53:56.382Z,74.70
2018-07-14T10:56:24.636Z,73.70
2018-07-14T10:58:52.920Z,74.30
2018-07-14T11:03:49.072Z,75.20
2018-07-14T11:06:17.463Z,74.50
2018-07-14T11:08:45.675Z,74.20
2018-07-14T11:11:13.912Z,74.00
2018-07-14T11:13:42.060Z,75.00
2018-07-14T11:16:10.228Z,74.00
2018-07-14T11:18:38.464Z,75.20
2018-07-14T11:21:06.828Z,74.90
2018-07-14T11:23:35.125Z,74.70
2018-07-14T11:26:03.395Z,74.50
2018-07-14T11:28:31.688Z,74.50
2018-07-14T11:31:00.230Z,74.60
2018-07-14T11:33:28.564Z,75.10
2018-07-14T11:35:57.952Z,74.90
2018-07-14T11:38:26.200Z,74.80
2018-07-14T11:40:54.693Z,74.50
2018-07-14T11:43:22.971Z,74.50
2018-07-14T11:45:51.243Z,75.30
2018-07-14T11:48:19.506Z,74.10
2018-07-14T11:53:47.919Z,73.70
2018-07-14T11:56:16.387Z,75.30
2018-07-14T11:58:44.620Z,74.20
2018-07-14T12:01:12.859Z,74.60
2018-07-14T12:03:41.248Z,74.30
2018-07-14T12:06:10.714Z,75.20
2018-07-14T12:08:38.931Z,74.90
2018-07-14T12:11:07.712Z,75.90
2018-07-14T12:13:35.919Z,74.20
2018-07-14T12:16:04.341Z,74.40
2018-07-14T12:18:32.580Z,74.10
2018-07-14T12:21:00.864Z,74.50
2018-07-14T12:23:29.064Z,75.30
2018-07-14T12:25:57.543Z,73.60
2018-07-14T12:28:25.932Z,74.30
2018-07-14T12:30:54.338Z,73.30
2018-07-14T12:33:22.573Z,74.80
2018-07-14T12:35:50.956Z,74.20
2018-07-14T12:38:19.166Z,74.70
2018-07-14T12:40:47.542Z,73.80
2018-07-14T12:43:15.866Z,73.70
2018-07-14T12:45:44.311Z,72.20
2018-07-14T12:48:12.709Z,73.20
2018-07-14T12:50:40.994Z,72.40
2018-07-14T12:53:09.235Z,72.70
2018-07-14T12:55:37.592Z,74.20
2018-07-14T12:58:05.903Z,74.20
2018-07-14T13:00:34.121Z,72.10
2018-07-14T13:03:02.351Z,72.70
2018-07-14T13:05:30.675Z,72.70
2018-07-14T13:07:58.957Z,73.20
2018-07-14T13:10:27.166Z,72.70
2018-07-14T13:12:55.443Z,73.20
2018-07-14T13:16:27.587Z,74.00
2018-07-14T13:18:55.821Z,74.10
2018-07-14T13:21:24.209Z,73.80
2018-07-14T13:23:52.432Z,73.40
2018-07-14T13:26:20.614Z,73.60
2018-07-14T13:28:48.882Z,73.10
2018-07-14T13:31:17.201Z,72.40
2018-07-14T13:33:45.419Z,73.60
2018-07-14T13:36:13.691Z,74.60
2018-07-14T13:38:51.263Z,74.70
2018-07-14T13:41:10.276Z,74.60
2018-07-14T13:43:38.508Z,75.60
2018-07-14T13:46:06.752Z,75.10
2018-07-14T13:48:35.304Z,75.80
2018-07-14T13:51:03.691Z,75.50
2018-07-14T13:53:31.924Z,75.60
2018-07-14T13:58:29.271Z,74.10
2018-07-14T14:00:57.593Z,75.00
2018-07-14T14:03:26.819Z,75.20
2018-07-14T14:05:55.263Z,75.10
2018-07-14T14:08:23.501Z,75.20
2018-07-14T14:10:51.667Z,76.00
2018-07-14T14:13:19.872Z,75.60
2018-07-14T14:15:49.283Z,74.70
2018-07-14T14:18:17.506Z,77.10
2018-07-14T14:20:45.702Z,76.50
2018-07-14T14:23:13.877Z,76.10
2018-07-14T14:25:42.162Z,76.60
2018-07-14T14:30:38.463Z,75.80
2018-07-14T14:33:06.950Z,76.80
2018-07-14T14:35:35.121Z,76.20
2018-07-14T14:38:03.435Z,75.60
2018-07-14T14:40:31.786Z,76.90
2018-07-14T14:43:00.029Z,76.20
2018-07-14T14:45:28.398Z,76.20
2018-07-14T14:47:56.680Z,75.80
2018-07-14T14:50:24.866Z,75.50
2018-07-14T14:52:53.085Z,74.70
2018-07-14T14:55:22.434Z,75.40
2018-07-14T14:57:50.699Z,75.70
2018-07-14T15:00:18.948Z,75.20
2018-07-14T15:02:47.268Z,75.50
2018-07-14T15:05:15.655Z,75.80
2018-07-14T15:07:43.858Z,74.90
2018-07-14T15:10:12.121Z,76.10
2018-07-14T15:12:40.326Z,76.80
2018-07-14T15:15:08.763Z,77.50
2018-07-14T15:17:37.098Z,75.50
2018-07-14T15:20:05.370Z,76.90
2018-07-14T15:22:33.588Z,77.30
2018-07-14T15:25:02.406Z,77.60
2018-07-14T15:27:30.594Z,77.40
2018-07-14T15:29:58.852Z,77.00
2018-07-14T15:32:27.104Z,76.30
2018-07-14T15:34:55.332Z,76.40
2018-07-14T15:37:23.788Z,74.30
2018-07-14T15:42:20.024Z,77.50
2018-07-14T15:44:48.404Z,76.30
2018-07-14T15:49:44.932Z,78.60
2018-07-14T15:52:13.154Z,78.70
2018-07-14T15:54:41.611Z,77.50
2018-07-14T15:57:09.783Z,78.40
2018-07-14T16:02:06.069Z,79.70
2018-07-14T16:04:34.472Z,78.70
2018-07-14T16:09:37.360Z,79.30
2018-07-14T16:12:06.735Z,79.60
2018-07-14T16:14:35.134Z,81.10
2018-07-14T16:17:03.565Z,80.30
2018-07-14T16:19:31.807Z,80.10
2018-07-14T16:22:00.175Z,80.40
2018-07-14T16:24:28.442Z,80.90
2018-07-14T16:26:56.669Z,80.90
2018-07-14T16:29:24.918Z,81.60
2018-07-14T16:31:53.170Z,82.70
2018-07-14T16:34:21.633Z,81.80
2018-07-14T16:36:49.852Z,81.70
2018-07-14T16:39:18.037Z,81.30
2018-07-14T16:41:46.228Z,81.50
2018-07-14T16:44:15.486Z,81.60
2018-07-14T16:46:43.761Z,82.20
2018-07-14T16:49:11.987Z,81.40
2018-07-14T16:51:40.226Z,81.00
2018-07-14T16:54:08.598Z,81.40
2018-07-14T16:56:36.932Z,80.70
2018-07-14T16:59:05.210Z,81.10
2018-07-14T17:01:33.411Z,82.00
2018-07-14T17:04:01.608Z,82.30
2018-07-14T17:08:57.933Z,82.70
2018-07-14T17:11:26.096Z,82.80
2018-07-14T17:13:54.397Z,83.20
2018-07-14T17:16:22.481Z,83.40
2018-07-14T17:18:50.746Z,84.30
2018-07-14T17:21:18.988Z,84.80
2018-07-14T17:23:47.228Z,85.30
2018-07-14T17:26:15.641Z,84.70
2018-07-14T17:28:43.840Z,84.40
2018-07-14T17:31:12.035Z,84.90
2018-07-14T17:33:41.044Z,85.70
2018-07-14T17:36:09.444Z,86.30
2018-07-14T17:38:37.638Z,85.80
2018-07-14T17:41:05.846Z,86.40
2018-07-14T17:43:33.999Z,86.60
2018-07-14T17:46:02.308Z,85.80
2018-07-14T17:48:33.544Z,86.30
2018-07-14T17:51:01.732Z,86.80
2018-07-14T17:53:29.983Z,86.80
2018-07-14T17:55:58.307Z,86.70
2018-07-14T17:58:26.598Z,87.30
2018-07-14T18:00:54.931Z,87.50
2018-07-14T18:03:23.223Z,87.50
2018-07-14T18:05:51.695Z,87.00
2018-07-14T18:08:19.935Z,87.60
2018-07-14T18:10:48.349Z,87.80
2018-07-14T18:13:16.490Z,87.80
2018-07-14T18:15:44.690Z,87.30
2018-07-14T18:18:12.865Z,88.00
2018-07-14T18:20:41.086Z,88.80
2018-07-14T18:23:09.279Z,88.80
2018-07-14T18:28:05.507Z,89.20
2018-07-14T18:30:33.659Z,89.40
2018-07-14T18:33:01.858Z,89.60
2018-07-14T18:35:30.050Z,90.00
2018-07-14T18:37:58.227Z,90.10
2018-07-14T18:40:26.563Z,90.30
2018-07-14T18:42:54.736Z,90.20
2018-07-14T18:45:25.027Z,90.30
2018-07-14T18:47:53.226Z,90.50
2018-07-14T18:50:21.860Z,90.60
2018-07-14T18:52:50.113Z,90.50
2018-07-14T18:55:18.350Z,90.70
2018-07-14T18:57:46.535Z,91.00
2018-07-14T19:00:14.734Z,91.10
2018-07-14T19:02:42.971Z,91.30
2018-07-14T19:07:39.210Z,91.40
2018-07-14T19:10:07.405Z,91.50
2018-07-14T19:12:35.673Z,91.40
2018-07-14T19:15:04.213Z,91.50
2018-07-14T19:17:32.878Z,91.70
2018-07-14T19:20:01.090Z,91.90
2018-07-14T19:22:29.688Z,92.00
2018-07-14T19:24:58.745Z,92.20
2018-07-14T19:27:27.408Z,92.20
2018-07-14T19:29:56.037Z,92.20
2018-07-14T19:32:24.481Z,92.20
2018-07-14T19:34:52.771Z,92.20
2018-07-14T19:37:20.958Z,92.30
2018-07-14T19:39:49.188Z,92.40
2018-07-14T19:42:17.393Z,92.50
2018-07-14T19:44:45.638Z,92.50
2018-07-14T19:47:13.902Z,92.60
2018-07-14T19:49:42.133Z,92.70
2018-07-14T19:52:10.475Z,92.90
2018-07-14T19:54:38.847Z,92.90
2018-07-14T19:57:07.093Z,92.90
2018-07-14T19:59:35.398Z,93.00
2018-07-14T20:02:04.057Z,93.10
2018-07-14T20:04:32.532Z,93.20
2018-07-14T20:07:00.811Z,93.30
2018-07-14T20:09:29.009Z,93.30
2018-07-14T20:11:57.277Z,93.30
2018-07-14T20:14:25.603Z,92.80
2018-07-14T20:16:53.850Z,92.60
2018-07-14T20:19:22.071Z,92.30
2018-07-14T20:21:50.277Z,92.30
2018-07-14T20:24:18.532Z,91.80
2018-07-14T20:26:46.722Z,91.70
2018-07-14T20:29:14.940Z,91.40
2018-07-14T20:31:43.237Z,91.30
2018-07-14T20:34:11.698Z,90.80
2018-07-14T20:36:39.956Z,90.70
2018-07-14T20:39:08.250Z,90.50
2018-07-14T20:41:36.653Z,90.10
2018-07-14T20:44:05.099Z,89.90
2018-07-14T20:46:33.361Z,89.80
2018-07-14T20:49:01.595Z,89.50
2018-07-14T20:51:29.830Z,89.10
2018-07-14T20:53:58.219Z,89.10
2018-07-14T20:56:26.415Z,88.80
2018-07-14T20:58:54.774Z,89.00
2018-07-14T21:01:22.947Z,89.30
2018-07-14T21:03:51.151Z,89.50
2018-07-14T21:06:19.388Z,89.50
2018-07-14T21:08:47.604Z,89.20
2018-07-14T21:11:15.829Z,89.20
2018-07-14T21:13:44.002Z,88.90
2018-07-14T21:16:12.997Z,88.60
2018-07-14T21:18:41.283Z,88.30
2018-07-14T21:21:09.667Z,87.80
2018-07-14T21:23:37.874Z,87.10
2018-07-14T21:26:06.287Z,87.00
2018-07-14T21:28:34.443Z,86.80
2018-07-14T21:31:02.736Z,86.70
2018-07-14T21:33:31.142Z,85.90
2018-07-14T21:35:59.561Z,85.50
2018-07-14T21:38:27.772Z,85.20
2018-07-14T21:40:55.947Z,84.60
2018-07-14T21:43:24.136Z,84.70
2018-07-14T21:45:52.478Z,84.30
2018-07-14T21:48:20.670Z,84.40
2018-07-14T21:50:48.915Z,84.50
2018-07-14T21:53:17.106Z,84.30
2018-07-14T21:55:45.550Z,84.50
2018-07-14T21:58:13.723Z,84.30
2018-07-14T22:00:47.322Z,84.40
2018-07-14T22:03:15.584Z,84.70
2018-07-14T22:05:43.924Z,84.80
2018-07-14T22:08:12.124Z,84.60
2018-07-14T22:10:40.361Z,84.30
2018-07-14T22:13:08.566Z,84.50
2018-07-14T22:15:36.843Z,84.40
2018-07-14T22:21:05.783Z,83.80
2018-07-14T22:23:34.101Z,84.20
2018-07-14T22:26:02.344Z,83.40
2018-07-14T22:28:30.579Z,83.30
2018-07-14T22:30:58.795Z,83.60
2018-07-14T22:33:27.022Z,83.50
2018-07-14T22:35:55.391Z,83.20
2018-07-14T22:38:23.588Z,83.40
2018-07-14T22:40:51.821Z,83.30
2018-07-14T22:43:20.027Z,83.50
2018-07-14T22:45:48.280Z,83.50
2018-07-14T22:48:16.469Z,83.60
2018-07-14T22:50:44.676Z,83.70
2018-07-14T22:53:12.885Z,83.90
2018-07-14T22:55:41.208Z,83.90
2018-07-14T22:58:09.466Z,83.90
2018-07-14T23:00:37.641Z,84.10
2018-07-14T23:03:06.116Z,84.20
2018-07-14T23:05:34.533Z,84.00
2018-07-14T23:08:02.806Z,84.20
2018-07-14T23:10:31.029Z,84.10
2018-07-14T23:12:59.228Z,83.80
2018-07-14T23:15:27.596Z,83.90
2018-07-14T23:17:56.626Z,83.60
2018-07-14T23:20:24.822Z,83.10
2018-07-14T23:22:53.048Z,83.30
2018-07-14T23:25:21.386Z,83.20
2018-07-14T23:27:49.601Z,83.20
2018-07-14T23:30:17.838Z,83.20
2018-07-14T23:32:46.017Z,83.50
2018-07-14T23:35:14.253Z,83.50
2018-07-14T23:37:42.476Z,83.60
2018-07-14T23:40:10.789Z,83.70
2018-07-14T23:42:39.017Z,83.80
2018-07-14T23:45:07.973Z,84.10
2018-07-14T23:47:36.146Z,84.00
2018-07-14T23:50:04.508Z,84.10
2018-07-14T23:52:32.682Z,84.40
2018-07-14T23:55:01.029Z,84.60
2018-07-14T23:57:29.231Z,84.50
